Time;durP1;ratioP1;P1;durP2;ratioP2;P2;SDS_P1;SDS_P2;PMS_P1;PMS_P2;Temp;Humidity;BMP_temperature;BMP_pressure;BME280_temperature;BME280_humidity;BME280_pressure;Samples;Min_cycle;Max_cycle;Signal;HPM_P1;HPM_P2
2022/08/23 00:01:13;;;;;;;7.83;3.90;;;;;;;;;;5013638;28;20195;-68
2022/08/23 00:03:39;;;;;;;4.53;3.80;;;;;;;;;;5013519;28;20273;-69
2022/08/23 00:06:05;;;;;;;7.53;3.80;;;;;;;;;;5012271;28;20192;-68
2022/08/23 00:08:32;;;;;;;5.77;4.03;;;;;;;;;;5013411;28;20179;-69
2022/08/23 00:10:58;;;;;;;8.80;4.23;;;;;;;;;;5013818;28;20207;-68
2022/08/23 00:13:24;;;;;;;6.97;4.03;;;;;;;;;;5013550;28;20266;-68
2022/08/23 00:15:50;;;;;;;11.83;4.60;;;;;;;;;;5012066;28;20605;-68
2022/08/23 00:18:17;;;;;;;5.90;4.10;;;;;;;;;;5013290;28;20179;-68
2022/08/23 00:20:43;;;;;;;5.40;3.80;;;;;;;;;;5013261;28;20172;-68
2022/08/23 00:23:09;;;;;;;6.40;3.87;;;;;;;;;;5013424;28;20644;-68
2022/08/23 00:25:35;;;;;;;9.43;4.30;;;;;;;;;;5011962;28;20184;-68
2022/08/23 00:28:01;;;;;;;7.20;4.10;;;;;;;;;;5013528;28;20607;-68
2022/08/23 00:30:27;;;;;;;8.47;4.20;;;;;;;;;;5012932;28;20175;-68
2022/08/23 00:32:53;;;;;;;8.50;4.27;;;;;;;;;;5013080;28;20614;-68
2022/08/23 00:35:20;;;;;;;8.50;4.50;;;;;;;;;;5013539;28;20179;-68
2022/08/23 00:37:46;;;;;;;10.20;4.20;;;;;;;;;;5013134;28;20552;-68
2022/08/23 00:40:13;;;;;;;8.07;4.37;;;;;;;;;;5011817;28;20206;-68
2022/08/23 00:48:19;;;;;;;7.97;4.60;;;;;;;;;;5013274;28;20218;-68
2022/08/23 00:50:50;;;;;;;5.40;4.13;;;;;;;;;;5011972;28;20270;-68
2022/08/23 00:53:17;;;;;;;6.33;4.40;;;;;;;;;;5012207;28;20191;-68
2022/08/23 00:55:45;;;;;;;4.70;4.20;;;;;;;;;;5013291;28;20176;-68
2022/08/23 00:58:12;;;;;;;7.97;4.60;;;;;;;;;;5011712;28;20562;-68
2022/08/23 01:00:38;;;;;;;8.00;4.40;;;;;;;;;;5013038;28;20223;-67
2022/08/23 01:03:07;;;;;;;8.43;4.40;;;;;;;;;;5012781;28;20176;-68
2022/08/23 01:05:40;;;;;;;7.23;4.43;;;;;;;;;;5013028;28;20532;-68
2022/08/23 01:08:06;;;;;;;8.77;3.97;;;;;;;;;;5013131;28;20207;-68
2022/08/23 01:10:36;;;;;;;12.53;4.80;;;;;;;;;;5011590;28;20236;-68
2022/08/23 01:13:14;;;;;;;8.53;4.60;;;;;;;;;;5011551;28;20210;-69
2022/08/23 01:15:42;;;;;;;6.10;4.13;;;;;;;;;;5012841;28;20292;-68
2022/08/23 01:18:10;;;;;;;9.80;4.40;;;;;;;;;;5012932;28;20176;-68
2022/08/23 01:20:43;;;;;;;6.37;4.40;;;;;;;;;;5012659;28;20211;-68
2022/08/23 01:23:27;;;;;;;10.90;4.90;;;;;;;;;;5012976;28;20160;-68
2022/08/23 01:25:53;;;;;;;7.37;4.40;;;;;;;;;;5013090;28;20182;-68
2022/08/23 01:28:19;;;;;;;11.33;4.97;;;;;;;;;;5012974;28;20669;-68
2022/08/23 01:30:47;;;;;;;5.30;4.13;;;;;;;;;;5013022;28;20176;-68
2022/08/23 01:33:13;;;;;;;8.37;4.50;;;;;;;;;;5012696;28;20726;-68
2022/08/23 01:35:41;;;;;;;6.70;4.60;;;;;;;;;;5012643;28;20175;-68
2022/08/23 01:38:07;;;;;;;12.73;4.77;;;;;;;;;;5012945;28;20180;-68
2022/08/23 01:40:34;;;;;;;7.10;5.07;;;;;;;;;;5011237;28;20214;-68
2022/08/23 01:43:00;;;;;;;8.30;5.23;;;;;;;;;;5013938;28;20680;-68
2022/08/23 01:45:27;;;;;;;5.93;4.67;;;;;;;;;;5016105;28;20242;-68
2022/08/23 01:47:53;;;;;;;6.47;4.50;;;;;;;;;;5014729;28;20235;-68
2022/08/23 01:50:19;;;;;;;8.70;4.80;;;;;;;;;;5015915;28;20180;-68
2022/08/23 01:52:45;;;;;;;6.00;4.23;;;;;;;;;;5016354;28;20668;-68
2022/08/23 01:55:12;;;;;;;6.87;4.90;;;;;;;;;;5016183;28;20195;-69
2022/08/23 01:57:40;;;;;;;5.80;4.73;;;;;;;;;;5014551;28;20191;-68
2022/08/23 02:00:07;;;;;;;11.30;4.93;;;;;;;;;;5015711;28;20267;-68
2022/08/23 02:02:33;;;;;;;7.87;4.70;;;;;;;;;;5015738;28;20283;-68
2022/08/23 02:04:59;;;;;;;7.50;4.80;;;;;;;;;;5014447;28;20229;-68
2022/08/23 02:07:27;;;;;;;7.33;5.10;;;;;;;;;;5014371;28;20176;-68
2022/08/23 02:09:53;;;;;;;7.87;4.90;;;;;;;;;;5015562;28;20272;-68
2022/08/23 02:12:19;;;;;;;6.07;4.87;;;;;;;;;;5014265;28;20286;-69
2022/08/23 02:14:45;;;;;;;8.13;4.77;;;;;;;;;;5014317;28;20655;-68
2022/08/23 02:17:11;;;;;;;8.67;4.93;;;;;;;;;;5015350;28;20677;-68
2022/08/23 02:19:38;;;;;;;10.00;5.93;;;;;;;;;;5015589;28;20250;-68
2022/08/23 02:22:06;;;;;;;8.00;4.93;;;;;;;;;;5015376;28;20192;-68
2022/08/23 02:24:32;;;;;;;8.10;5.80;;;;;;;;;;5015549;28;20172;-68
2022/08/23 02:27:00;;;;;;;11.33;5.00;;;;;;;;;;5014066;28;20594;-68
2022/08/23 02:29:28;;;;;;;12.27;6.47;;;;;;;;;;5015767;28;20230;-68
2022/08/23 02:31:55;;;;;;;7.43;5.30;;;;;;;;;;5015167;28;20200;-68
2022/08/23 02:34:21;;;;;;;7.47;5.10;;;;;;;;;;5013861;28;20198;-68
2022/08/23 02:36:47;;;;;;;9.03;5.33;;;;;;;;;;5013767;28;20224;-68
2022/08/23 02:39:14;;;;;;;8.57;5.03;;;;;;;;;;5014940;28;20204;-68
2022/08/23 02:41:40;;;;;;;9.63;5.57;;;;;;;;;;5014966;28;20211;-68
2022/08/23 02:44:06;;;;;;;8.50;5.63;;;;;;;;;;5014986;28;20207;-68
2022/08/23 02:46:32;;;;;;;7.50;5.33;;;;;;;;;;5015016;28;20179;-68
2022/08/23 02:48:58;;;;;;;7.87;5.23;;;;;;;;;;5013591;28;20199;-68
2022/08/23 02:51:25;;;;;;;8.43;5.90;;;;;;;;;;5014821;28;20196;-68
2022/08/23 02:53:50;;;;;;;6.43;5.43;;;;;;;;;;5013814;28;20636;-68
2022/08/23 02:56:17;;;;;;;8.13;5.30;;;;;;;;;;5015637;28;20183;-68
2022/08/23 02:58:46;;;;;;;11.93;5.70;;;;;;;;;;5013239;28;20204;-68
2022/08/23 03:01:16;;;;;;;10.57;5.70;;;;;;;;;;5014550;28;20208;-68
2022/08/23 03:03:42;;;;;;;6.17;5.33;;;;;;;;;;5013320;28;20176;-68
2022/08/23 03:06:08;;;;;;;9.87;6.23;;;;;;;;;;5014362;28;20315;-68
2022/08/23 03:08:34;;;;;;;9.57;6.00;;;;;;;;;;5013289;28;20180;-68
2022/08/23 03:11:00;;;;;;;9.77;5.57;;;;;;;;;;5014322;28;20602;-68
2022/08/23 03:13:26;;;;;;;6.70;6.00;;;;;;;;;;5014466;28;20180;-68
2022/08/23 03:15:52;;;;;;;9.43;5.80;;;;;;;;;;5014849;28;20180;-68
2022/08/23 03:18:18;;;;;;;10.33;5.97;;;;;;;;;;5014831;28;20207;-68
2022/08/23 03:20:45;;;;;;;9.00;5.50;;;;;;;;;;5014600;28;20305;-68
2022/08/23 03:23:11;;;;;;;7.73;5.97;;;;;;;;;;5014271;28;20176;-68
2022/08/23 03:25:37;;;;;;;11.50;6.30;;;;;;;;;;5014219;28;20204;-68
2022/08/23 03:28:05;;;;;;;9.73;6.70;;;;;;;;;;5012901;28;20176;-68
2022/08/23 03:30:32;;;;;;;9.77;5.57;;;;;;;;;;5014183;28;20674;-68
2022/08/23 03:32:58;;;;;;;9.23;6.00;;;;;;;;;;5012786;28;20261;-68
2022/08/23 03:35:24;;;;;;;7.80;6.03;;;;;;;;;;5013985;28;20185;-68
2022/08/23 03:37:52;;;;;;;10.67;6.30;;;;;;;;;;5014050;28;20180;-68
2022/08/23 03:40:19;;;;;;;9.97;5.80;;;;;;;;;;5013802;28;20206;-68
2022/08/23 03:42:45;;;;;;;9.40;6.50;;;;;;;;;;5013802;28;20215;-68
2022/08/23 03:45:11;;;;;;;9.57;6.67;;;;;;;;;;5013841;28;20176;-68
2022/08/23 03:47:38;;;;;;;11.50;6.33;;;;;;;;;;5014162;28;20414;-68
2022/08/23 03:50:04;;;;;;;10.87;5.87;;;;;;;;;;5012517;28;20184;-68
2022/08/23 03:52:30;;;;;;;10.13;6.47;;;;;;;;;;5013689;28;20200;-68
2022/08/23 03:54:57;;;;;;;10.07;6.83;;;;;;;;;;5013920;28;20530;-68
2022/08/23 03:57:23;;;;;;;8.00;6.03;;;;;;;;;;5028231;23;20358;-67
2022/08/23 03:59:49;;;;;;;8.03;6.30;;;;;;;;;;5015037;28;20694;-67
2022/08/23 04:02:15;;;;;;;9.60;6.10;;;;;;;;;;5014257;28;20655;-67
2022/08/23 04:04:41;;;;;;;8.63;6.40;;;;;;;;;;5015861;28;20204;-67
2022/08/23 04:07:08;;;;;;;8.27;5.93;;;;;;;;;;5014940;28;20618;-67
2022/08/23 04:09:34;;;;;;;9.33;5.80;;;;;;;;;;5015635;28;20194;-67
2022/08/23 04:12:00;;;;;;;8.63;5.73;;;;;;;;;;5015722;28;20176;-67
2022/08/23 04:14:26;;;;;;;9.60;6.10;;;;;;;;;;5014673;28;20226;-69
2022/08/23 04:16:52;;;;;;;8.40;6.13;;;;;;;;;;5013153;28;20668;-67
2022/08/23 04:19:18;;;;;;;12.07;6.10;;;;;;;;;;5012929;28;20818;-67
2022/08/23 04:21:50;;;;;;;8.13;6.47;;;;;;;;;;5015956;28;20204;-67
2022/08/23 04:24:17;;;;;;;10.03;6.17;;;;;;;;;;5013974;28;20179;-67
2022/08/23 04:26:44;;;;;;;9.83;6.40;;;;;;;;;;5015988;28;20176;-67
2022/08/23 04:29:13;;;;;;;10.30;6.77;;;;;;;;;;5016054;28;20191;-64
2022/08/23 04:31:39;;;;;;;9.67;6.50;;;;;;;;;;5015292;28;20180;-67
2022/08/23 04:34:05;;;;;;;9.53;6.70;;;;;;;;;;5015762;28;20186;-67
2022/08/23 04:36:34;;;;;;;7.23;6.30;;;;;;;;;;5013526;28;20650;-67
2022/08/23 04:39:00;;;;;;;10.80;5.87;;;;;;;;;;5014044;28;20211;-67
2022/08/23 04:44:10;;;;;;;10.63;6.47;;;;;;;;;;5014263;28;20222;-67
2022/08/23 04:46:36;;;;;;;10.70;6.30;;;;;;;;;;5013915;28;20546;-67
2022/08/23 04:49:02;;;;;;;14.50;7.07;;;;;;;;;;5014391;28;20171;-67
2022/08/23 04:51:28;;;;;;;9.73;6.23;;;;;;;;;;5014059;28;20184;-67
2022/08/23 04:53:54;;;;;;;8.27;6.30;;;;;;;;;;5014207;28;20176;-67
2022/08/23 04:56:22;;;;;;;12.07;6.53;;;;;;;;;;5013826;28;20194;-67
2022/08/23 04:58:48;;;;;;;11.10;6.53;;;;;;;;;;5014086;28;20212;-67
2022/08/23 05:01:17;;;;;;;9.43;6.30;;;;;;;;;;5014310;28;20644;-67
2022/08/23 05:03:43;;;;;;;10.27;6.53;;;;;;;;;;5013872;28;20265;-67
2022/08/23 05:06:09;;;;;;;11.47;6.43;;;;;;;;;;5013708;28;20208;-67
2022/08/23 05:08:35;;;;;;;11.70;6.83;;;;;;;;;;5013674;28;20681;-67
2022/08/23 05:11:01;;;;;;;10.30;6.53;;;;;;;;;;5014039;28;20256;-67
2022/08/23 05:13:27;;;;;;;10.47;7.37;;;;;;;;;;5013770;28;20176;-67
2022/08/23 05:15:53;;;;;;;14.57;6.20;;;;;;;;;;5013746;28;20255;-67
2022/08/23 05:18:19;;;;;;;7.40;5.93;;;;;;;;;;5014469;28;20239;-67
2022/08/23 05:20:45;;;;;;;12.57;6.03;;;;;;;;;;5017592;28;20214;-67
2022/08/23 05:23:11;;;;;;;10.67;7.27;;;;;;;;;;5017678;28;20238;-67
2022/08/23 05:25:49;;;;;;;13.37;7.10;;;;;;;;;;5017646;28;20545;-67
2022/08/23 05:28:19;;;;;;;11.77;6.77;;;;;;;;;;5017690;28;20278;-67
2022/08/23 05:30:53;;;;;;;10.60;7.47;;;;;;;;;;5018036;28;20187;-67
2022/08/23 05:33:19;;;;;;;13.40;8.60;;;;;;;;;;5018074;28;20221;-67
2022/08/23 05:35:45;;;;;;;15.53;9.20;;;;;;;;;;5017235;28;20184;-67
2022/08/23 05:38:10;;;;;;;12.63;8.03;;;;;;;;;;5015983;28;20203;-67
2022/08/23 05:40:36;;;;;;;14.43;7.30;;;;;;;;;;5018010;28;20683;-67
2022/08/23 05:43:02;;;;;;;11.70;7.80;;;;;;;;;;5015885;28;20183;-67
2022/08/23 05:45:28;;;;;;;16.43;10.03;;;;;;;;;;5017747;28;20663;-67
2022/08/23 05:47:54;;;;;;;17.10;8.90;;;;;;;;;;5015972;28;20199;-67
2022/08/23 05:50:21;;;;;;;17.57;9.20;;;;;;;;;;5017823;28;20262;-68
2022/08/23 05:52:48;;;;;;;16.13;8.00;;;;;;;;;;5015750;28;20188;-67
2022/08/23 05:55:14;;;;;;;14.10;7.67;;;;;;;;;;5015198;28;20250;-66
2022/08/23 05:57:40;;;;;;;10.60;7.13;;;;;;;;;;5016048;28;20695;-66
2022/08/23 06:00:14;;;;;;;13.67;7.37;;;;;;;;;;5016365;28;20231;-67
2022/08/23 06:02:41;;;;;;;15.70;8.80;;;;;;;;;;5016596;28;20646;-66
2022/08/23 06:05:08;;;;;;;23.13;9.60;;;;;;;;;;5016421;28;20182;-66
2022/08/23 06:07:34;;;;;;;18.53;10.63;;;;;;;;;;5016298;28;20246;-66
2022/08/23 06:10:00;;;;;;;19.23;10.50;;;;;;;;;;5015151;28;20270;-66
2022/08/23 06:12:26;;;;;;;15.90;10.37;;;;;;;;;;5016875;28;20206;-67
2022/08/23 06:14:52;;;;;;;20.27;11.10;;;;;;;;;;5016691;28;20180;-66
2022/08/23 06:17:18;;;;;;;17.77;10.37;;;;;;;;;;5016268;28;20218;-66
2022/08/23 06:19:44;;;;;;;17.60;11.37;;;;;;;;;;5017019;28;20674;-66
2022/08/23 06:22:10;;;;;;;17.33;10.50;;;;;;;;;;5016366;28;20184;-66
2022/08/23 06:24:36;;;;;;;15.27;10.90;;;;;;;;;;5015510;28;20180;-66
2022/08/23 06:27:02;;;;;;;15.57;10.57;;;;;;;;;;5015185;28;20291;-67
2022/08/23 06:29:28;;;;;;;16.10;11.03;;;;;;;;;;5015839;28;20184;-67
2022/08/23 06:31:54;;;;;;;15.67;10.37;;;;;;;;;;5015549;28;20628;-66
2022/08/23 06:34:22;;;;;;;18.33;11.67;;;;;;;;;;5016138;28;20671;-67
2022/08/23 06:36:50;;;;;;;16.93;11.00;;;;;;;;;;5014532;28;20187;-67
2022/08/23 06:39:16;;;;;;;14.93;9.87;;;;;;;;;;5014723;28;20282;-67
2022/08/23 06:41:42;;;;;;;13.53;9.40;;;;;;;;;;5016119;28;20176;-67
2022/08/23 06:44:09;;;;;;;17.10;10.00;;;;;;;;;;5016032;28;20233;-67
2022/08/23 06:46:35;;;;;;;17.33;9.27;;;;;;;;;;5016363;28;20538;-67
2022/08/23 06:49:04;;;;;;;16.43;9.57;;;;;;;;;;5016065;28;20273;-67
2022/08/23 06:51:32;;;;;;;19.30;9.33;;;;;;;;;;5015501;28;20191;-67
2022/08/23 06:53:59;;;;;;;20.67;10.33;;;;;;;;;;5015579;28;20184;-67
2022/08/23 06:56:26;;;;;;;19.40;9.50;;;;;;;;;;5015669;28;20183;-67
2022/08/23 06:58:53;;;;;;;18.67;9.30;;;;;;;;;;5015116;28;20679;-67
2022/08/23 07:01:22;;;;;;;22.40;9.13;;;;;;;;;;5016110;28;20191;-67
2022/08/23 07:03:54;;;;;;;17.37;8.73;;;;;;;;;;5015461;28;20179;-67
2022/08/23 07:06:20;;;;;;;26.33;9.43;;;;;;;;;;5015577;28;20222;-67
2022/08/23 07:08:46;;;;;;;23.83;9.43;;;;;;;;;;5013949;28;20204;-67
2022/08/23 07:11:11;;;;;;;17.63;10.13;;;;;;;;;;5015847;28;20179;-66
2022/08/23 07:13:38;;;;;;;15.77;8.67;;;;;;;;;;5014922;28;20267;-67
2022/08/23 07:16:04;;;;;;;16.47;8.23;;;;;;;;;;5013719;28;20627;-67
2022/08/23 07:18:30;;;;;;;21.57;8.23;;;;;;;;;;5014617;28;20203;-67
2022/08/23 07:20:57;;;;;;;18.53;9.07;;;;;;;;;;5014642;28;20274;-67
2022/08/23 07:23:23;;;;;;;20.47;8.30;;;;;;;;;;5013670;28;20715;-67
2022/08/23 07:25:49;;;;;;;20.20;8.10;;;;;;;;;;5015610;28;20230;-67
2022/08/23 07:28:16;;;;;;;18.17;8.23;;;;;;;;;;5014765;28;20279;-67
2022/08/23 07:30:42;;;;;;;10.67;7.50;;;;;;;;;;5015260;28;20190;-67
2022/08/23 07:33:07;;;;;;;17.67;7.50;;;;;;;;;;5015246;28;20180;-67
2022/08/23 07:35:34;;;;;;;15.40;7.67;;;;;;;;;;5015273;28;20208;-67
2022/08/23 07:38:00;;;;;;;14.30;7.97;;;;;;;;;;5014516;28;20683;-68
2022/08/23 07:40:26;;;;;;;13.73;7.33;;;;;;;;;;5013744;28;20208;-68
2022/08/23 07:42:52;;;;;;;19.87;7.20;;;;;;;;;;5014849;28;20180;-68
2022/08/23 07:45:18;;;;;;;14.03;7.83;;;;;;;;;;5014478;28;20227;-68
2022/08/23 07:47:44;;;;;;;19.07;7.37;;;;;;;;;;5014584;28;20683;-68
2022/08/23 07:50:10;;;;;;;14.30;6.97;;;;;;;;;;5014193;28;20662;-67
2022/08/23 07:52:36;;;;;;;11.77;7.80;;;;;;;;;;5014136;28;20176;-68
2022/08/23 07:55:02;;;;;;;14.97;7.70;;;;;;;;;;5014397;28;20184;-68
2022/08/23 07:57:28;;;;;;;17.10;8.87;;;;;;;;;;5014253;28;20290;-67
2022/08/23 07:59:54;;;;;;;18.20;8.90;;;;;;;;;;5013088;28;20556;-68
2022/08/23 08:02:21;;;;;;;22.70;10.17;;;;;;;;;;5013174;28;20303;-67
2022/08/23 08:04:47;;;;;;;14.83;8.70;;;;;;;;;;5014145;28;20190;-67
2022/08/23 08:07:13;;;;;;;16.10;9.90;;;;;;;;;;5014136;28;20208;-67
2022/08/23 08:09:39;;;;;;;20.60;11.07;;;;;;;;;;5014032;28;20184;-67
2022/08/23 08:12:05;;;;;;;17.97;10.47;;;;;;;;;;5013790;28;20193;-67
2022/08/23 08:14:31;;;;;;;19.70;8.63;;;;;;;;;;5014483;28;20636;-68
2022/08/23 08:16:59;;;;;;;21.10;9.83;;;;;;;;;;5015232;28;20207;-68
2022/08/23 08:19:25;;;;;;;19.73;9.03;;;;;;;;;;5014441;28;20203;-68
2022/08/23 08:21:51;;;;;;;16.80;8.57;;;;;;;;;;5014223;28;20187;-69
2022/08/23 08:24:17;;;;;;;21.83;8.90;;;;;;;;;;5013425;28;20640;-67
2022/08/23 08:26:44;;;;;;;17.80;9.47;;;;;;;;;;5014856;28;20176;-68
2022/08/23 08:29:11;;;;;;;17.47;7.97;;;;;;;;;;5014645;28;20199;-69
2022/08/23 08:31:38;;;;;;;19.27;8.70;;;;;;;;;;5014631;28;20184;-68
2022/08/23 08:34:04;;;;;;;15.27;7.80;;;;;;;;;;5013426;28;20257;-68
2022/08/23 08:36:30;;;;;;;16.57;8.40;;;;;;;;;;5014860;28;20198;-68
2022/08/23 08:38:56;;;;;;;17.17;10.27;;;;;;;;;;5014382;28;20290;-68
2022/08/23 08:41:32;;;;;;;24.30;11.90;;;;;;;;;;5014394;28;20616;-67
2022/08/23 08:44:00;;;;;;;31.97;14.70;;;;;;;;;;5015108;28;20250;-68
2022/08/23 08:46:47;;;;;;;23.60;11.37;;;;;;;;;;5015059;28;20179;-68
2022/08/23 08:49:15;;;;;;;29.47;10.83;;;;;;;;;;5014004;28;20518;-68
2022/08/23 08:51:50;;;;;;;19.03;9.93;;;;;;;;;;5014597;28;20216;-69
2022/08/23 08:54:18;;;;;;;16.60;6.50;;;;;;;;;;5018267;28;20206;-68
2022/08/23 08:56:46;;;;;;;19.20;7.13;;;;;;;;;;5018614;28;20620;-67
2022/08/23 08:59:14;;;;;;;15.27;7.17;;;;;;;;;;5017124;28;20210;-69
2022/08/23 09:01:40;;;;;;;9.77;7.10;;;;;;;;;;5018051;28;20175;-68
2022/08/23 09:04:07;;;;;;;13.23;5.87;;;;;;;;;;5018650;28;20233;-68
2022/08/23 09:06:35;;;;;;;14.10;6.90;;;;;;;;;;5018044;28;20176;-68
2022/08/23 09:09:25;;;;;;;14.13;7.13;;;;;;;;;;5018059;28;20242;-68
2022/08/23 09:12:08;;;;;;;12.57;6.60;;;;;;;;;;5016942;28;20179;-68
2022/08/23 09:14:37;;;;;;;15.97;6.87;;;;;;;;;;5018827;28;20160;-68
2022/08/23 09:17:05;;;;;;;12.77;7.10;;;;;;;;;;5016852;28;20204;-68
2022/08/23 09:19:32;;;;;;;13.20;6.70;;;;;;;;;;5018787;28;20207;-68
2022/08/23 09:22:04;;;;;;;16.30;6.70;;;;;;;;;;5018418;28;20176;-68
2022/08/23 09:24:30;;;;;;;8.77;6.57;;;;;;;;;;5016966;28;20190;-68
2022/08/23 09:26:56;;;;;;;13.57;6.40;;;;;;;;;;5018390;28;20192;-66
2022/08/23 09:29:22;;;;;;;17.57;6.90;;;;;;;;;;5018303;28;20191;-68
2022/08/23 09:31:57;;;;;;;17.10;6.70;;;;;;;;;;5018927;28;20577;-69
2022/08/23 09:34:33;;;;;;;16.80;6.70;;;;;;;;;;5018537;28;20155;-69
2022/08/23 09:37:19;;;;;;;15.70;6.03;;;;;;;;;;5018390;28;20211;-69
2022/08/23 09:39:48;;;;;;;11.93;5.43;;;;;;;;;;5018285;28;20207;-67
2022/08/23 09:42:26;;;;;;;13.03;6.03;;;;;;;;;;5017815;28;20176;-69
2022/08/23 09:44:52;;;;;;;10.80;6.47;;;;;;;;;;5017688;28;20180;-70
2022/08/23 09:47:18;;;;;;;15.30;6.73;;;;;;;;;;5018869;28;20234;-70
2022/08/23 09:49:47;;;;;;;12.67;6.23;;;;;;;;;;5019180;28;20184;-69
2022/08/23 09:52:13;;;;;;;18.93;6.77;;;;;;;;;;5018549;28;20176;-69
2022/08/23 09:54:40;;;;;;;13.60;5.87;;;;;;;;;;5017861;28;20191;-68
2022/08/23 09:57:10;;;;;;;12.10;5.80;;;;;;;;;;5016940;28;20685;-69
2022/08/23 09:59:39;;;;;;;14.47;5.93;;;;;;;;;;5021163;28;20200;-69
2022/08/23 10:02:09;;;;;;;12.33;5.67;;;;;;;;;;5019705;28;20182;-69
2022/08/23 10:04:46;;;;;;;13.43;5.70;;;;;;;;;;5019071;28;20180;-69
2022/08/23 10:07:20;;;;;;;13.60;5.97;;;;;;;;;;5020095;28;20191;-69
2022/08/23 10:09:46;;;;;;;13.30;5.43;;;;;;;;;;5018934;28;20179;-69
2022/08/23 10:12:13;;;;;;;10.20;5.00;;;;;;;;;;5019609;28;20198;-69
2022/08/23 10:14:39;;;;;;;11.73;5.27;;;;;;;;;;5017383;28;20188;-69
2022/08/23 10:17:08;;;;;;;11.67;4.97;;;;;;;;;;5020082;28;20753;-68
2022/08/23 10:19:50;;;;;;;10.77;4.77;;;;;;;;;;5021288;28;20204;-68
2022/08/23 10:22:27;;;;;;;12.90;4.93;;;;;;;;;;5020978;28;20648;-68
2022/08/23 10:24:53;;;;;;;32.03;5.43;;;;;;;;;;5017395;28;20183;-68
2022/08/23 10:30:53;;;;;;;15.47;4.63;;;;;;;;;;5016647;28;20207;-68
2022/08/23 10:33:29;;;;;;;9.50;4.00;;;;;;;;;;4996846;28;20319;-68
2022/08/23 10:36:01;;;;;;;17.33;4.43;;;;;;;;;;5016085;28;20167;-68
2022/08/23 10:38:45;;;;;;;7.97;3.60;;;;;;;;;;5015751;28;20664;-68
2022/08/23 10:41:20;;;;;;;7.00;4.10;;;;;;;;;;5015420;28;20191;-69
2022/08/23 10:43:52;;;;;;;15.40;4.60;;;;;;;;;;5015468;28;20175;-68
2022/08/23 10:46:21;;;;;;;11.13;5.27;;;;;;;;;;5015346;28;20171;-68
2022/08/23 10:48:53;;;;;;;10.37;4.60;;;;;;;;;;5015547;28;20270;-68
2022/08/23 10:51:26;;;;;;;19.93;4.80;;;;;;;;;;5015490;28;20258;-68
2022/08/23 10:54:14;;;;;;;10.00;3.80;;;;;;;;;;5015538;28;20295;-68
2022/08/23 10:56:40;;;;;;;9.57;4.20;;;;;;;;;;5015156;28;20220;-68
2022/08/23 10:59:17;;;;;;;6.63;4.30;;;;;;;;;;5015272;28;20208;-68
2022/08/23 11:01:49;;;;;;;7.87;3.80;;;;;;;;;;5015176;28;20187;-68
2022/08/23 11:04:35;;;;;;;10.37;3.87;;;;;;;;;;5015138;28;20191;-69
2022/08/23 11:07:01;;;;;;;9.50;3.60;;;;;;;;;;5013788;28;20204;-73
2022/08/23 11:09:29;;;;;;;9.43;3.97;;;;;;;;;;5015551;28;20629;-71
2022/08/23 11:12:11;;;;;;;10.90;4.57;;;;;;;;;;5015802;28;20191;-71
2022/08/23 11:14:38;;;;;;;9.70;3.83;;;;;;;;;;5015179;28;20179;-70
2022/08/23 11:17:06;;;;;;;7.40;3.67;;;;;;;;;;5015137;28;20272;-69
2022/08/23 11:19:58;;;;;;;7.57;4.03;;;;;;;;;;5014987;28;20210;-70
2022/08/23 11:22:29;;;;;;;9.70;4.40;;;;;;;;;;5010918;28;20188;-70
2022/08/23 11:25:00;;;;;;;12.23;3.87;;;;;;;;;;5013890;28;20632;-69
2022/08/23 11:27:31;;;;;;;8.07;3.73;;;;;;;;;;5014939;28;20224;-68
2022/08/23 11:29:57;;;;;;;10.32;3.75;;;;;;;;;;5014906;28;20667;-69
2022/08/23 11:32:38;;;;;;;9.13;4.13;;;;;;;;;;5014605;28;20310;-70
2022/08/23 11:35:09;;;;;;;9.40;4.20;;;;;;;;;;5013187;28;20188;-68
2022/08/23 11:37:49;;;;;;;9.05;4.10;;;;;;;;;;5014554;28;20207;-68
2022/08/23 11:40:35;;;;;;;8.93;4.60;;;;;;;;;;5014671;28;20203;-68
2022/08/23 11:43:04;;;;;;;12.63;4.45;;;;;;;;;;5014761;28;20242;-68
2022/08/23 11:45:45;;;;;;;11.52;4.53;;;;;;;;;;5012804;28;20278;-68
2022/08/23 11:48:21;;;;;;;8.52;4.40;;;;;;;;;;5014094;28;20191;-68
2022/08/23 11:50:50;;;;;;;8.02;4.68;;;;;;;;;;5012810;28;20667;-68
2022/08/23 11:53:35;;;;;;;10.80;4.63;;;;;;;;;;5014513;28;20656;-67
2022/08/23 11:56:09;;;;;;;7.43;4.37;;;;;;;;;;5012923;28;20206;-68
2022/08/23 11:58:54;;;;;;;9.43;4.13;;;;;;;;;;5013777;28;20219;-69
2022/08/23 12:01:30;;;;;;;9.98;4.43;;;;;;;;;;5014374;28;20167;-67
2022/08/23 12:04:08;;;;;;;9.07;5.00;;;;;;;;;;5015087;28;20601;-70
2022/08/23 12:07:00;;;;;;;11.98;4.22;;;;;;;;;;5014212;28;20155;-69
2022/08/23 12:09:26;;;;;;;8.13;4.63;;;;;;;;;;5014501;28;20254;-69
2022/08/23 12:11:52;;;;;;;10.50;4.00;;;;;;;;;;5012668;28;20211;-69
2022/08/23 12:14:30;;;;;;;7.35;3.95;;;;;;;;;;5014100;28;20599;-69
2022/08/23 12:16:57;;;;;;;12.55;4.18;;;;;;;;;;5012832;28;20342;-69
2022/08/23 12:19:45;;;;;;;5.93;3.58;;;;;;;;;;5012745;28;20211;-68
2022/08/23 12:22:13;;;;;;;5.60;3.72;;;;;;;;;;5012715;28;20592;-69
2022/08/23 12:24:41;;;;;;;10.30;4.43;;;;;;;;;;5014004;28;20183;-68
2022/08/23 12:27:19;;;;;;;6.85;4.10;;;;;;;;;;5013543;28;20200;-68
2022/08/23 12:29:53;;;;;;;9.32;4.40;;;;;;;;;;5014295;28;20539;-69
2022/08/23 12:32:38;;;;;;;5.43;3.75;;;;;;;;;;5012666;28;20179;-68
2022/08/23 12:35:22;;;;;;;7.47;5.30;;;;;;;;;;5013787;28;20187;-69
2022/08/23 12:38:03;;;;;;;7.57;3.35;;;;;;;;;;5013900;28;20232;-69
2022/08/23 12:40:37;;;;;;;6.30;3.63;;;;;;;;;;5012382;28;20767;-69
2022/08/23 12:43:24;;;;;;;7.03;3.20;;;;;;;;;;5012667;28;20182;-68
2022/08/23 12:45:57;;;;;;;4.80;3.03;;;;;;;;;;5013352;28;20215;-69
2022/08/23 12:48:25;;;;;;;8.65;3.60;;;;;;;;;;5012030;28;20694;-69
2022/08/23 12:50:54;;;;;;;7.85;4.03;;;;;;;;;;5013428;28;20179;-69
2022/08/23 12:53:27;;;;;;;6.68;3.65;;;;;;;;;;5013308;28;20267;-69
2022/08/23 12:56:00;;;;;;;6.00;4.05;;;;;;;;;;5014307;28;20164;-76
2022/08/23 12:58:27;;;;;;;7.75;5.43;;;;;;;;;;5025563;28;20247;-73
2022/08/23 13:00:55;;;;;;;8.15;4.43;;;;;;;;;;5030274;28;20211;-74
2022/08/23 13:03:28;;;;;;;10.27;4.10;;;;;;;;;;5019909;28;20286;-69
2022/08/23 13:05:56;;;;;;;7.60;3.60;;;;;;;;;;5013645;28;20157;-69
2022/08/23 13:08:27;;;;;;;6.22;3.60;;;;;;;;;;5013230;28;20729;-69
2022/08/23 13:10:54;;;;;;;5.70;3.20;;;;;;;;;;5013294;28;20184;-69
2022/08/23 13:13:23;;;;;;;7.05;3.38;;;;;;;;;;5011974;28;20188;-70
2022/08/23 13:15:49;;;;;;;5.95;3.78;;;;;;;;;;5013126;28;20180;-69
2022/08/23 13:18:25;;;;;;;8.20;3.75;;;;;;;;;;5013069;28;20573;-67
2022/08/23 13:21:09;;;;;;;6.20;3.50;;;;;;;;;;5013155;28;20207;-68
2022/08/23 13:23:35;;;;;;;9.57;3.45;;;;;;;;;;5013175;28;20174;-70
2022/08/23 13:26:21;;;;;;;5.47;3.67;;;;;;;;;;5013496;28;20707;-68
2022/08/23 13:29:06;;;;;;;7.93;3.85;;;;;;;;;;5011666;28;20655;-68
2022/08/23 13:31:52;;;;;;;3.75;3.33;;;;;;;;;;5011956;28;20591;-68
2022/08/23 13:34:30;;;;;;;8.80;3.75;;;;;;;;;;5011649;28;20187;-68
2022/08/23 13:37:01;;;;;;;5.32;3.50;;;;;;;;;;5013042;28;20200;-68
2022/08/23 13:39:29;;;;;;;5.68;3.65;;;;;;;;;;5015283;28;20203;-68
2022/08/23 13:41:55;;;;;;;7.55;3.60;;;;;;;;;;5016581;28;20172;-69
2022/08/23 13:44:21;;;;;;;3.40;2.80;;;;;;;;;;5016569;28;20180;-69
2022/08/23 13:46:48;;;;;;;6.93;3.90;;;;;;;;;;5016377;28;20251;-68
2022/08/23 13:49:27;;;;;;;12.55;3.47;;;;;;;;;;5015040;28;20184;-68
2022/08/23 13:51:59;;;;;;;6.38;3.78;;;;;;;;;;5014953;28;20718;-68
2022/08/23 13:54:25;;;;;;;7.95;3.75;;;;;;;;;;5016483;28;20184;-68
2022/08/23 13:56:56;;;;;;;6.80;3.42;;;;;;;;;;5015936;28;20176;-69
2022/08/23 13:59:25;;;;;;;4.85;3.13;;;;;;;;;;5014908;28;20199;-69
2022/08/23 14:01:51;;;;;;;8.20;3.50;;;;;;;;;;5016125;28;20216;-70
2022/08/23 14:04:18;;;;;;;6.00;3.10;;;;;;;;;;5016686;28;20180;-69
2022/08/23 14:06:45;;;;;;;3.42;2.92;;;;;;;;;;5016102;28;20176;-69
2022/08/23 14:09:11;;;;;;;6.28;3.60;;;;;;;;;;5015059;28;20255;-69
2022/08/23 14:11:37;;;;;;;8.23;3.38;;;;;;;;;;5016134;28;20222;-68
2022/08/23 14:14:03;;;;;;;6.30;3.17;;;;;;;;;;5016745;28;20063;-69
2022/08/23 14:16:30;;;;;;;6.18;3.00;;;;;;;;;;5016140;28;20176;-69
2022/08/23 14:18:56;;;;;;;10.55;3.55;;;;;;;;;;5014561;28;20683;-69
2022/08/23 14:21:23;;;;;;;8.95;3.65;;;;;;;;;;5015880;28;20176;-69
2022/08/23 14:23:49;;;;;;;8.25;3.03;;;;;;;;;;5016293;28;20567;-69
2022/08/23 14:26:16;;;;;;;6.40;3.53;;;;;;;;;;5014426;28;20226;-68
2022/08/23 14:28:42;;;;;;;4.72;3.03;;;;;;;;;;5014682;28;20612;-69
2022/08/23 14:31:08;;;;;;;5.68;3.28;;;;;;;;;;5015627;28;20210;-69
2022/08/23 14:33:34;;;;;;;6.32;3.30;;;;;;;;;;5015806;28;20176;-69
2022/08/23 14:36:00;;;;;;;4.68;3.45;;;;;;;;;;5015685;28;20188;-69
2022/08/23 14:38:26;;;;;;;4.57;2.95;;;;;;;;;;5015393;28;20203;-69
2022/08/23 14:40:57;;;;;;;4.88;3.20;;;;;;;;;;5014149;28;20239;-69
2022/08/23 14:43:24;;;;;;;8.48;3.05;;;;;;;;;;5015960;28;20210;-69
2022/08/23 14:45:50;;;;;;;7.03;3.38;;;;;;;;;;5014054;28;20225;-69
2022/08/23 14:48:16;;;;;;;5.90;3.40;;;;;;;;;;5015189;28;20274;-68
2022/08/23 14:50:42;;;;;;;6.65;3.55;;;;;;;;;;5015077;28;20179;-69
2022/08/23 14:53:09;;;;;;;9.70;3.30;;;;;;;;;;5015157;28;20553;-69
2022/08/23 14:55:35;;;;;;;4.30;3.03;;;;;;;;;;5015644;28;20187;-69
2022/08/23 14:58:02;;;;;;;7.38;2.63;;;;;;;;;;5014987;28;20273;-69